Time;durP1;ratioP1;P1;durP2;ratioP2;P2;SDS_P1;SDS_P2;PMS_P1;PMS_P2;Temp;Humidity;BMP_temperature;BMP_pressure;BME280_temperature;BME280_humidity;BME280_pressure;Samples;Min_cycle;Max_cycle;Signal;HPM_P1;HPM_P2
2021/08/06 02:46:31;;;;;;;;;;;16.50;99.30;;;;;;5;36051656;41312930;-87
2021/08/06 02:49:45;;;;;;;;;;;16.50;98.80;;;;;;5;36013700;41267979;-87
2021/08/06 02:53:02;;;;;;;;;;;16.50;98.90;;;;;;5;36015955;41267460;-87
2021/08/06 02:56:22;;;;;;;;;;;16.50;98.90;;;;;;5;36015457;41268064;-88
2021/08/06 02:59:43;;;;;;;;;;;16.50;98.40;;;;;;5;36012563;42015534;-89
2021/08/06 03:02:57;;;;;;;;;;;16.50;98.60;;;;;;5;36013877;41265428;-89
2021/08/06 03:06:14;;;;;;;;;;;16.50;98.10;;;;;;5;36013537;41265693;-89
2021/08/06 03:09:33;;;;;;;;;;;16.50;97.90;;;;;;5;36012276;41265416;-88
2021/08/06 03:16:44;;;;;;;;;;;16.50;97.80;;;;;;5;36012842;41264966;-89
2021/08/06 03:20:02;;;;;;;;;;;16.40;98.00;;;;;;5;36013023;41265418;-89
2021/08/06 03:23:21;;;;;;;;;;;16.40;98.30;;;;;;5;36012502;41266332;-89
2021/08/06 03:26:41;;;;;;;;;;;16.40;98.30;;;;;;5;36013650;41266826;-89
2021/08/06 03:29:55;;;;;;;;;;;16.40;98.50;;;;;;5;36013723;41264903;-89
2021/08/06 03:33:14;;;;;;;;;;;16.30;98.60;;;;;;5;36012194;42015028;-88
2021/08/06 03:36:33;;;;;;;;;;;16.30;98.70;;;;;;5;36013742;41265210;-89
2021/08/06 03:39:53;;;;;;;;;;;16.30;99.10;;;;;;5;36012807;41264503;-88
2021/08/06 03:43:07;;;;;;;;;;;16.20;99.10;;;;;;5;36012991;41265307;-89
2021/08/06 03:51:30;;;;;;;3.45;3.20;;;16.20;98.70;;;;;;175871;28;39016137;-88
2021/08/06 03:54:43;;;;;;;;;;;16.20;99.20;;;;;;5;38263532;39014988;-89
2021/08/06 03:57:56;;;;;;;;;;;16.20;98.80;;;;;;5;36012838;39015809;-89
2021/08/06 04:01:08;;;;;;;;;;;16.20;98.60;;;;;;5;36013197;39014314;-89
2021/08/06 04:04:19;;;;;;;;;;;16.20;98.80;;;;;;5;36013173;39015439;-89
2021/08/06 04:07:28;;;;;;;;;;;16.20;98.80;;;;;;5;36014896;39014762;-89
2021/08/06 04:10:40;;;;;;;;;;;16.20;98.90;;;;;;5;36013024;39018289;-88
2021/08/06 04:13:52;;;;;;;;;;;16.20;98.60;;;;;;5;36012431;39014847;-89
2021/08/06 04:17:03;;;;;;;;;;;16.20;98.90;;;;;;5;36012270;39014646;-89
2021/08/06 04:20:12;;;;;;;;;;;16.20;99.50;;;;;;5;36013591;39015275;-89
2021/08/06 04:23:24;;;;;;;;;;;16.10;99.50;;;;;;5;36014200;39015763;-89
2021/08/06 04:26:36;;;;;;;;;;;16.20;99.00;;;;;;5;36014341;39016478;-89
2021/08/06 04:29:47;;;;;;;;;;;16.20;99.00;;;;;;5;36013950;39014642;-89
2021/08/06 04:32:56;;;;;;;;;;;16.20;99.10;;;;;;5;36014617;39014525;-89
2021/08/06 04:36:08;;;;;;;;;;;16.20;98.80;;;;;;5;36013376;39015313;-89
2021/08/06 04:39:20;;;;;;;;;;;16.20;98.20;;;;;;5;36012502;39015165;-89
2021/08/06 04:42:31;;;;;;;;;;;16.30;97.40;;;;;;5;36013620;39014564;-89
2021/08/06 04:45:40;;;;;;;;;;;16.40;96.90;;;;;;5;36013784;39014559;-89
2021/08/06 04:48:52;;;;;;;;;;;16.50;97.30;;;;;;5;36013473;39014938;-89
2021/08/06 04:52:04;;;;;;;;;;;16.40;97.00;;;;;;5;36013132;39015349;-89
2021/08/06 04:55:15;;;;;;;;;;;16.40;97.40;;;;;;5;36012517;39014496;-88
2021/08/06 04:58:53;;;;;;;;;;;16.30;99.50;;;;;;5;36012786;39015486;-89
2021/08/06 05:02:05;;;;;;;;;;;16.00;99.90;;;;;;5;36013468;39014830;-89
2021/08/06 05:05:17;;;;;;;;;;;15.90;99.90;;;;;;5;36012444;39015184;-93
2021/08/06 05:08:28;;;;;;;;;;;15.80;99.90;;;;;;5;36013823;39015828;-92
2021/08/06 05:11:37;;;;;;;;;;;15.80;99.90;;;;;;5;36013894;39017169;-90
2021/08/06 05:14:49;;;;;;;;;;;15.90;99.90;;;;;;5;36013525;39017255;-91
2021/08/06 05:18:01;;;;;;;;;;;15.90;99.90;;;;;;5;36012641;39015375;-90
2021/08/06 05:21:12;;;;;;;;;;;15.90;99.90;;;;;;5;36014255;39014837;-91
2021/08/06 05:24:22;;;;;;;;;;;15.80;99.90;;;;;;5;36013632;39016720;-91
2021/08/06 05:27:33;;;;;;;;;;;15.70;99.90;;;;;;5;36013998;39017014;-91
2021/08/06 05:30:45;;;;;;;;;;;15.60;99.90;;;;;;5;36014291;39016033;-91
2021/08/06 05:33:58;;;;;;;;;;;15.70;99.90;;;;;;5;36014594;39015143;-91
2021/08/06 05:37:09;;;;;;;;;;;15.70;99.90;;;;;;5;36013864;39016332;-92
2021/08/06 05:40:21;;;;;;;;;;;15.60;99.90;;;;;;5;36013545;39015884;-92
2021/08/06 05:43:33;;;;;;;;;;;15.70;99.90;;;;;;5;36013921;39016150;-91
2021/08/06 05:46:44;;;;;;;;;;;15.70;99.90;;;;;;5;36013042;39017204;-90
2021/08/06 05:49:53;;;;;;;;;;;15.70;99.90;;;;;;5;36013336;39015990;-90
2021/08/06 05:53:04;;;;;;;;;;;15.70;99.90;;;;;;5;36014024;39017479;-91
2021/08/06 05:56:16;;;;;;;;;;;15.90;99.90;;;;;;5;36013532;39015407;-90
2021/08/06 05:59:29;;;;;;;;;;;15.90;99.90;;;;;;5;36013178;39015344;-90
2021/08/06 06:02:38;;;;;;;;;;;16.10;99.90;;;;;;5;36013066;39014958;-90
2021/08/06 06:05:50;;;;;;;;;;;16.10;99.90;;;;;;5;36013314;39016517;-90
2021/08/06 06:09:02;;;;;;;;;;;16.20;99.90;;;;;;5;36013301;39016006;-91
2021/08/06 06:12:13;;;;;;;;;;;16.10;99.90;;;;;;5;36014809;39015777;-89
2021/08/06 06:15:23;;;;;;;;;;;16.00;99.90;;;;;;5;36014318;39015640;-89
2021/08/06 06:18:34;;;;;;;;;;;16.00;99.90;;;;;;5;36013161;39016678;-89
2021/08/06 06:21:46;;;;;;;;;;;16.00;99.90;;;;;;5;36013260;39016074;-89
2021/08/06 06:24:58;;;;;;;;;;;16.10;99.90;;;;;;5;36014464;39015051;-89
2021/08/06 06:28:07;;;;;;;;;;;16.20;99.90;;;;;;5;36013871;39015646;-89
2021/08/06 06:31:19;;;;;;;;;;;16.20;99.90;;;;;;5;36014235;39016836;-88
2021/08/06 06:34:31;;;;;;;;;;;16.40;99.90;;;;;;5;36014559;39016609;-88
2021/08/06 06:37:42;;;;;;;;;;;16.60;99.90;;;;;;5;36014103;39015759;-88
2021/08/06 06:40:51;;;;;;;;;;;16.90;99.90;;;;;;5;36015404;39015681;-87
2021/08/06 06:44:03;;;;;;;;;;;17.10;99.90;;;;;;5;36015294;39015894;-88
2021/08/06 06:47:15;;;;;;;;;;;17.30;99.90;;;;;;5;36014345;39015809;-89
2021/08/06 06:50:27;;;;;;;;;;;17.40;99.90;;;;;;5;36015474;39016176;-88
2021/08/06 06:53:36;;;;;;;;;;;17.30;99.90;;;;;;5;36013900;39016712;-88
2021/08/06 06:56:48;;;;;;;;;;;17.20;99.90;;;;;;5;36013889;39015658;-88
2021/08/06 07:00:00;;;;;;;;;;;17.40;99.90;;;;;;5;36013862;39015918;-88
2021/08/06 07:03:11;;;;;;;;;;;17.50;99.90;;;;;;5;36014644;39016531;-90
2021/08/06 07:06:20;;;;;;;;;;;17.70;99.90;;;;;;5;36013913;39015317;-89
2021/08/06 07:09:32;;;;;;;;;;;17.70;99.90;;;;;;5;36015325;39016302;-88
2021/08/06 07:12:45;;;;;;;;;;;17.80;99.90;;;;;;5;36014096;39016865;-86
2021/08/06 07:15:56;;;;;;;;;;;17.50;99.90;;;;;;5;36014987;39015477;-85
2021/08/06 07:19:05;;;;;;;;;;;17.10;99.90;;;;;;5;36014257;39015519;-88
2021/08/06 07:22:16;;;;;;;;;;;17.20;99.90;;;;;;5;36013305;39016404;-87
2021/08/06 07:25:28;;;;;;;;;;;17.50;99.90;;;;;;5;36014269;39017064;-88
2021/08/06 07:28:42;;;;;;;;;;;17.80;99.90;;;;;;5;36014789;39016052;-89
2021/08/06 07:31:51;;;;;;;;;;;18.20;99.90;;;;;;5;36013599;39015790;-89
2021/08/06 07:35:04;;;;;;;;;;;18.70;99.90;;;;;;5;36014039;39016260;-88
2021/08/06 07:38:15;;;;;;;;;;;19.40;99.90;;;;;;5;36013078;39015795;-89
2021/08/06 07:41:27;;;;;;;;;;;20.00;99.90;;;;;;5;36013504;39016946;-89
2021/08/06 07:44:35;;;;;;;;;;;20.40;98.30;;;;;;5;36013318;39016417;-84
2021/08/06 07:47:47;;;;;;;;;;;20.90;98.50;;;;;;5;36014675;39015265;-86
2021/08/06 07:50:59;;;;;;;;;;;21.30;94.80;;;;;;5;36013527;39017338;-87
2021/08/06 07:54:10;;;;;;;;;;;21.50;93.20;;;;;;5;36013985;39015891;-86
2021/08/06 07:57:19;;;;;;;;;;;21.80;90.00;;;;;;5;36013353;39015580;-88
2021/08/06 08:00:31;;;;;;;;;;;22.00;90.50;;;;;;5;36014013;39018836;-89
2021/08/06 08:03:43;;;;;;;;;;;22.00;85.20;;;;;;5;36014451;39016112;-92
2021/08/06 08:06:54;;;;;;;;;;;22.30;88.60;;;;;;5;36013765;39014675;-92
2021/08/06 08:10:04;;;;;;;;;;;22.20;84.70;;;;;;5;36013511;39016408;-89
2021/08/06 08:13:18;;;;;;;;;;;21.80;83.80;;;;;;5;36015109;39015843;-92
2021/08/06 08:16:30;;;;;;;;;;;22.00;87.80;;;;;;5;36013943;39015337;-89
2021/08/06 08:19:41;;;;;;;;;;;21.90;88.10;;;;;;5;36013384;39015443;-90
2021/08/06 08:22:50;;;;;;;;;;;21.70;90.20;;;;;;5;36014028;39015724;-90
2021/08/06 08:26:02;;;;;;;;;;;21.70;88.20;;;;;;5;36013782;39016029;-90
2021/08/06 08:29:14;;;;;;;;;;;21.80;88.90;;;;;;5;36014033;39015912;-89
2021/08/06 08:32:26;;;;;;;;;;;22.10;85.60;;;;;;5;36015717;39015888;-90
2021/08/06 08:35:35;;;;;;;;;;;22.30;84.60;;;;;;5;36015176;39017584;-87
2021/08/06 08:38:47;;;;;;;;;;;22.50;86.80;;;;;;5;36013642;39017680;-85
2021/08/06 08:42:00;;;;;;;;;;;22.70;84.40;;;;;;5;36013313;39016830;-87
2021/08/06 08:45:11;;;;;;;;;;;23.00;80.90;;;;;;5;36013999;39018698;-90
2021/08/06 08:48:21;;;;;;;;;;;23.20;79.40;;;;;;5;36014342;39015875;-87
2021/08/06 08:51:34;;;;;;;;;;;23.50;80.90;;;;;;5;36014057;39016368;-87
2021/08/06 08:54:46;;;;;;;;;;;23.60;78.70;;;;;;5;36014662;39017696;-88
2021/08/06 08:57:57;;;;;;;;;;;24.00;78.00;;;;;;5;36016085;39015162;-87
2021/08/06 09:01:06;;;;;;;;;;;26.00;75.80;;;;;;5;36014931;39015391;-89
2021/08/06 09:04:18;;;;;;;;;;;27.80;68.60;;;;;;5;36014771;39016333;-87
2021/08/06 09:07:31;;;;;;;;;;;28.10;65.90;;;;;;5;36014504;39016965;-90
2021/08/06 09:10:43;;;;;;;;;;;27.70;64.70;;;;;;5;36015158;39018097;-90
2021/08/06 09:13:53;;;;;;;;;;;27.50;67.10;;;;;;5;36014812;39016747;-89
2021/08/06 09:17:09;;;;;;;;;;;27.40;65.70;;;;;;5;36014488;39016440;-85
2021/08/06 09:20:21;;;;;;;;;;;26.70;66.30;;;;;;5;36013235;39016675;-88
2021/08/06 09:23:55;;;;;;;;;;;26.20;66.20;;;;;;5;36013456;39766364;-85
2021/08/06 09:27:15;;;;;;;;;;;26.30;67.50;;;;;;5;36014040;39016683;-89
2021/08/06 09:30:32;;;;;;;;;;;27.50;64.80;;;;;;5;36014166;39016477;-90
2021/08/06 09:33:45;;;;;;;;;;;29.80;60.80;;;;;;5;36013839;39016491;-90
2021/08/06 09:37:00;;;;;;;;;;;31.20;56.40;;;;;;5;36013661;39015982;-91
2021/08/06 09:40:15;;;;;;;;;;;30.90;54.80;;;;;;5;36014928;39015124;-90
2021/08/06 09:43:27;;;;;;;;;;;30.00;56.00;;;;;;5;36013858;39015788;-90
2021/08/06 09:46:40;;;;;;;;;;;29.00;58.00;;;;;;5;36013800;39016746;-90
2021/08/06 09:49:55;;;;;;;;;;;28.40;59.70;;;;;;5;36013936;39016424;-89
2021/08/06 09:53:05;;;;;;;;;;;28.40;58.70;;;;;;5;36013730;39015507;-90
2021/08/06 09:56:19;;;;;;;;;;;28.40;60.70;;;;;;5;36015179;39765333;-90
2021/08/06 09:59:34;;;;;;;;;;;28.50;58.20;;;;;;5;36014162;39015821;-90
2021/08/06 10:02:47;;;;;;;;;;;28.50;58.20;;;;;;5;36014373;39016496;-90
2021/08/06 10:06:13;;;;;;;;;;;28.30;57.30;;;;;;5;36013313;39015945;-90
2021/08/06 10:09:26;;;;;;;;;;;27.90;59.40;;;;;;5;36013510;39016084;-90
2021/08/06 10:12:39;;;;;;;;;;;30.20;57.70;;;;;;5;36013582;39016122;-91
2021/08/06 10:15:52;;;;;;;;;;;33.00;53.30;;;;;;5;36014276;39016966;-89
2021/08/06 10:19:01;;;;;;;;;;;35.60;48.50;;;;;;5;36014407;39017395;-91
2021/08/06 10:22:14;;;;;;;;;;;36.60;45.20;;;;;;5;36014329;39017276;-87
2021/08/06 10:25:29;;;;;;;;;;;36.20;44.40;;;;;;5;36014014;39015080;-87
2021/08/06 10:28:44;;;;;;;;;;;34.50;45.70;;;;;;5;36013674;39765653;-86
2021/08/06 10:32:12;;;;;;;;;;;32.80;48.10;;;;;;5;36014243;39016027;-90
2021/08/06 10:35:25;;;;;;;;;;;31.90;49.30;;;;;;5;36013516;39016586;-88
2021/08/06 10:38:42;;;;;;;;;;;31.60;50.60;;;;;;5;36012840;39015784;-87
2021/08/06 10:41:55;;;;;;;;;;;31.10;50.50;;;;;;5;36013716;39015951;-91
2021/08/06 10:45:04;;;;;;;;;;;30.40;52.10;;;;;;5;36013758;39017331;-91
2021/08/06 10:52:20;;;;;;;;;;;28.60;55.10;;;;;;5;36013153;39015119;-92
2021/08/06 10:55:35;;;;;;;;;;;30.10;54.30;;;;;;5;36014111;39015692;-92
2021/08/06 10:58:51;;;;;;;;;;;33.90;50.50;;;;;;5;36013589;39015773;-91
2021/08/06 11:02:05;;;;;;;;;;;37.10;45.30;;;;;;5;36013814;39764761;-92
2021/08/06 11:05:31;;;;;;;;;;;37.50;42.00;;;;;;5;36014108;39014620;-92
2021/08/06 11:08:45;;;;;;;;;;;37.70;43.00;;;;;;5;36014577;39015245;-92
2021/08/06 11:12:06;;;;;;;;;;;39.60;40.60;;;;;;5;36013256;39016331;-92
2021/08/06 11:15:18;;;;;;;;;;;39.40;38.80;;;;;;5;36013401;39015125;-92
2021/08/06 11:18:31;;;;;;;;;;;38.10;40.60;;;;;;5;36014862;39016163;-92
2021/08/06 11:21:44;;;;;;;;;;;37.30;41.00;;;;;;5;36013603;39019048;-91
2021/08/06 11:24:54;;;;;;;;;;;37.00;42.50;;;;;;5;36014342;39015350;-86
2021/08/06 11:28:06;;;;;;;;;;;36.20;42.60;;;;;;5;36016024;39014856;-92
2021/08/06 11:31:20;;;;;;;;;;;35.20;44.10;;;;;;5;36013516;39016233;-87
2021/08/06 11:34:53;;;;;;;;;;;34.50;45.10;;;;;;5;36013279;39767404;-88
2021/08/06 11:38:07;;;;;;;;;;;33.60;45.10;;;;;;5;36013837;39016183;-90
2021/08/06 11:41:19;;;;;;;;;;;32.60;46.40;;;;;;5;36013297;39016589;-90
2021/08/06 11:44:32;;;;;;;;;;;33.30;47.20;;;;;;5;36013303;39018164;-90
2021/08/06 11:47:46;;;;;;;;;;;34.10;45.20;;;;;;5;36013395;39016901;-89
2021/08/06 11:50:56;;;;;;;;;;;33.70;45.40;;;;;;5;36015798;39016669;-89
2021/08/06 11:54:09;;;;;;;;;;;32.90;47.20;;;;;;5;36015293;39015750;-89
2021/08/06 11:57:22;;;;;;;;;;;33.80;47.00;;;;;;5;36014218;39015716;-90
2021/08/06 12:00:35;;;;;;;;;;;36.30;43.30;;;;;;5;36013876;39015877;-90
2021/08/06 12:03:49;;;;;;;;;;;38.90;40.10;;;;;;5;36013797;39015942;-89
2021/08/06 12:07:04;;;;;;;;;;;40.40;37.70;;;;;;5;36015970;39765068;-89
2021/08/06 12:10:16;;;;;;;;;;;42.20;35.20;;;;;;5;36013527;39018664;-90
2021/08/06 12:13:29;;;;;;;;;;;42.50;35.10;;;;;;5;36014225;39016076;-90
2021/08/06 12:16:40;;;;;;;;;;;43.30;35.30;;;;;;5;36013510;39015543;-90
2021/08/06 12:19:55;;;;;;;;;;;44.00;34.10;;;;;;5;36013136;39016389;-91
2021/08/06 12:23:09;;;;;;;;;;;44.60;33.00;;;;;;5;36014018;39016484;-90
2021/08/06 12:26:22;;;;;;;;;;;45.40;32.00;;;;;;5;36015015;39017167;-90
2021/08/06 12:29:33;;;;;;;;;;;45.60;32.70;;;;;;5;36014399;39017576;-89
2021/08/06 12:32:45;;;;;;;;;;;45.40;32.90;;;;;;5;36014168;39016918;-90
2021/08/06 12:36:27;;;;;;;;;;;45.40;31.80;;;;;;5;36013797;39016051;-91
2021/08/06 12:39:47;;;;;;;;;;;45.20;31.70;;;;;;5;36014618;39765448;-90
2021/08/06 12:42:57;;;;;;;;;;;45.20;30.90;;;;;;5;36013638;39015408;-90
2021/08/06 12:46:11;;;;;;;;;;;44.60;30.90;;;;;;5;36013440;39015686;-90
2021/08/06 12:49:25;;;;;;;;;;;44.60;32.10;;;;;;5;36014821;39015365;-90
2021/08/06 12:52:40;;;;;;;;;;;42.90;33.70;;;;;;5;36012923;39017444;-91
2021/08/06 12:56:04;;;;;;;;;;;41.40;34.00;;;;;;5;36014004;39015870;-90
2021/08/06 12:59:21;;;;;;;;;;;41.00;35.20;;;;;;5;36013411;39015639;-90
2021/08/06 13:02:33;;;;;;;;;;;39.80;34.70;;;;;;5;36013873;39015105;-90
2021/08/06 13:05:46;;;;;;;;;;;39.10;36.30;;;;;;5;36014188;39015490;-90
2021/08/06 13:08:56;;;;;;;;;;;38.90;36.10;;;;;;5;36013813;39016477;-90
2021/08/06 13:12:12;;;;;;;;;;;39.00;36.40;;;;;;5;36013184;39765415;-90
2021/08/06 13:15:25;;;;;;;;;;;38.90;35.90;;;;;;5;36013824;39016022;-90
2021/08/06 13:18:37;;;;;;;;;;;39.20;35.60;;;;;;5;36014631;39016087;-91
2021/08/06 13:21:57;;;;;;;;;;;39.30;36.00;;;;;;5;36013724;39014991;-91
2021/08/06 13:25:11;;;;;;;;;;;39.70;35.50;;;;;;5;36014019;39015372;-90
2021/08/06 13:28:25;;;;;;;;;;;38.90;35.70;;;;;;5;36015678;39014868;-90
2021/08/06 13:31:38;;;;;;;;;;;39.20;36.70;;;;;;5;36014167;39015106;-90
2021/08/06 13:34:47;;;;;;;;;;;39.30;35.80;;;;;;5;36014297;39015538;-90
2021/08/06 13:38:00;;;;;;;;;;;39.10;36.50;;;;;;5;36014119;39015446;-91
2021/08/06 13:41:13;;;;;;;;;;;38.70;36.50;;;;;;5;36013472;39016266;-90
2021/08/06 13:44:27;;;;;;;;;;;39.00;37.00;;;;;;5;36012902;39765751;-91
2021/08/06 13:47:37;;;;;;;;;;;38.80;36.40;;;;;;5;36013944;39015746;-89
2021/08/06 13:50:50;;;;;;;;;;;38.60;36.10;;;;;;5;36013566;39015444;-90
2021/08/06 13:54:03;;;;;;;;;;;38.10;36.30;;;;;;5;36012892;39016578;-89
2021/08/06 13:57:15;;;;;;;;;;;38.10;36.80;;;;;;5;36013336;39015273;-88
2021/08/06 14:00:25;;;;;;;;;;;38.00;36.20;;;;;;5;36013195;39015218;-88
2021/08/06 14:03:38;;;;;;;;;;;37.80;36.90;;;;;;5;36013992;39015943;-87
2021/08/06 14:06:51;;;;;;;;;;;37.60;38.30;;;;;;5;36013208;39016367;-88
2021/08/06 14:10:04;;;;;;;;;;;37.50;36.60;;;;;;5;36013873;39016008;-88
2021/08/06 14:13:14;;;;;;;;;;;37.20;37.70;;;;;;5;36013897;39015478;-87
2021/08/06 14:16:28;;;;;;;;;;;37.00;38.60;;;;;;5;36013689;39765605;-87
2021/08/06 14:19:41;;;;;;;;;;;36.80;38.80;;;;;;5;36013481;39016119;-87
2021/08/06 14:22:53;;;;;;;;;;;36.00;39.60;;;;;;5;36013017;39015555;-87
2021/08/06 14:26:04;;;;;;;;;;;36.00;40.70;;;;;;5;36014221;39016299;-88
2021/08/06 14:29:18;;;;;;;;;;;35.90;39.70;;;;;;5;36014378;39015396;-88
2021/08/06 14:32:30;;;;;;;;;;;35.60;41.90;;;;;;5;36013001;39015432;-87
2021/08/06 14:35:43;;;;;;;;;;;34.80;41.80;;;;;;5;36013087;39015606;-87
2021/08/06 14:38:53;;;;;;;;;;;34.60;41.70;;;;;;5;36013521;39016052;-88
2021/08/06 14:42:05;;;;;;;;;;;34.50;41.70;;;;;;5;36013168;39015812;-87
2021/08/06 14:45:18;;;;;;;;;;;34.10;41.60;;;;;;5;36012992;39015923;-87
2021/08/06 14:48:32;;;;;;;;;;;33.40;42.10;;;;;;5;36013900;39765591;-87
2021/08/06 14:51:42;;;;;;;;;;;32.50;43.40;;;;;;5;36013576;39015668;-87
2021/08/06 14:54:54;;;;;;;;;;;31.70;43.70;;;;;;5;36013010;39014927;-88
2021/08/06 14:58:07;;;;;;;;;;;31.00;45.40;;;;;;5;36012917;39015570;-88
2021/08/06 15:01:20;;;;;;;;;;;30.70;47.30;;;;;;5;36013188;39015755;-88
2021/08/06 15:04:29;;;;;;;;;;;30.50;47.70;;;;;;5;36015805;39021010;-88
2021/08/06 15:07:42;;;;;;;;;;;30.40;48.10;;;;;;5;36013325;39015827;-87
2021/08/06 15:10:55;;;;;;;;;;;30.40;48.20;;;;;;5;36014726;39015385;-87
2021/08/06 15:14:07;;;;;;;;;;;30.20;46.90;;;;;;5;36014007;39015757;-87
2021/08/06 15:17:17;;;;;;;;;;;29.70;47.70;;;;;;5;36014169;39014889;-87
2021/08/06 15:20:31;;;;;;;;;;;29.10;49.80;;;;;;5;36013492;39765346;-87
2021/08/06 15:23:44;;;;;;;;;;;29.00;49.80;;;;;;5;36012823;39016167;-87
2021/08/06 15:26:57;;;;;;;;;;;29.00;50.50;;;;;;5;36013965;39015522;-87
2021/08/06 15:30:06;;;;;;;;;;;28.90;50.50;;;;;;5;36014729;39016863;-87
2021/08/06 15:33:19;;;;;;;;;;;28.70;49.70;;;;;;5;36013427;39015572;-87
2021/08/06 15:36:35;;;;;;;;;;;28.70;50.10;;;;;;5;36013919;39016550;-87
2021/08/06 15:39:48;;;;;;;;;;;28.50;49.60;;;;;;5;36014127;39015111;-87
2021/08/06 15:42:58;;;;;;;;;;;28.10;51.00;;;;;;5;36013075;39015556;-87
2021/08/06 15:46:13;;;;;;;;;;;28.20;50.40;;;;;;5;36013837;39016248;-87
2021/08/06 15:49:26;;;;;;;;;;;28.10;50.40;;;;;;5;36014286;39014920;-86
2021/08/06 15:52:40;;;;;;;;;;;28.00;51.80;;;;;;5;36013787;39764828;-87
2021/08/06 15:55:50;;;;;;;;;;;28.00;50.90;;;;;;5;36015242;39014989;-87
2021/08/06 15:59:02;;;;;;;;;;;27.70;51.30;;;;;;5;36013027;39015288;-87
2021/08/06 16:02:15;;;;;;;;;;;27.80;51.80;;;;;;5;36015015;39016588;-87
2021/08/06 16:05:27;;;;;;;;;;;27.50;51.50;;;;;;5;36012965;39015644;-86
2021/08/06 16:08:39;;;;;;;;;;;27.30;51.90;;;;;;5;36013025;39015660;-86
2021/08/06 16:11:52;;;;;;;;;;;26.90;52.20;;;;;;5;36014182;39016103;-86
2021/08/06 16:15:05;;;;;;;;;;;26.80;53.30;;;;;;5;36013947;39014818;-86
2021/08/06 16:18:18;;;;;;;;;;;26.80;53.30;;;;;;5;36014167;39015968;-86
2021/08/06 16:21:27;;;;;;;;;;;26.80;54.30;;;;;;5;36014031;39015307;-87
2021/08/06 16:24:42;;;;;;;;;;;26.60;54.60;;;;;;5;36012978;39766111;-86
2021/08/06 16:27:54;;;;;;;;;;;26.50;53.30;;;;;;5;36014561;39015260;-87
2021/08/06 16:31:07;;;;;;;;;;;26.50;55.50;;;;;;5;36014126;39015784;-87
2021/08/06 16:34:17;;;;;;;;;;;26.40;55.20;;;;;;5;36014434;39015501;-88
2021/08/06 16:37:29;;;;;;;;;;;26.40;54.80;;;;;;5;36013506;39016645;-88
2021/08/06 16:40:42;;;;;;;;;;;26.40;54.50;;;;;;5;36014591;39015793;-87
2021/08/06 16:43:55;;;;;;;;;;;26.20;54.60;;;;;;5;36015447;39016395;-89
2021/08/06 16:47:04;;;;;;;;;;;26.00;55.10;;;;;;5;36014069;39016031;-89
2021/08/06 16:50:17;;;;;;;;;;;25.90;55.90;;;;;;5;36013511;39015398;-91
2021/08/06 16:53:31;;;;;;;;;;;25.70;55.90;;;;;;5;36012826;39017046;-90
2021/08/06 16:56:45;;;;;;;;;;;25.60;56.70;;;;;;5;36013126;39764895;-89
2021/08/06 16:59:55;;;;;;;;;;;25.50;57.60;;;;;;5;36014255;39015365;-90
2021/08/06 17:03:10;;;;;;;;;;;25.40;57.40;;;;;;5;36012793;39016019;-89
2021/08/06 17:06:22;;;;;;;;;;;25.30;57.80;;;;;;5;36013373;39015661;-92
2021/08/06 17:09:35;;;;;;;;;;;25.20;58.40;;;;;;5;36014696;39014846;-89
2021/08/06 17:12:45;;;;;;;;;;;25.00;58.70;;;;;;5;36014377;39015792;-87
2021/08/06 17:15:57;;;;;;;;;;;24.70;58.90;;;;;;5;36014895;39017524;-87
2021/08/06 17:19:10;;;;;;;;;;;24.60;59.70;;;;;;5;36014134;39015953;-88
2021/08/06 17:22:23;;;;;;;;;;;24.30;60.40;;;;;;5;36013018;39015673;-86
2021/08/06 17:25:33;;;;;;;;;;;24.10;60.20;;;;;;5;36013995;39015154;-89
2021/08/06 17:28:47;;;;;;;;;;;23.90;61.30;;;;;;5;36014106;39766482;-89
2021/08/06 17:32:01;;;;;;;;;;;23.90;62.10;;;;;;5;36014596;39018102;-89
2021/08/06 17:35:14;;;;;;;;;;;23.80;62.10;;;;;;5;36015415;39016719;-88
2021/08/06 17:38:24;;;;;;;;;;;23.60;62.40;;;;;;5;36013778;39015941;-88
2021/08/06 17:41:36;;;;;;;;;;;23.50;62.80;;;;;;5;36013425;39015641;-89
2021/08/06 17:44:49;;;;;;;;;;;23.50;63.10;;;;;;5;36013182;39017165;-88
2021/08/06 17:48:02;;;;;;;;;;;23.30;64.00;;;;;;5;36014263;39016605;-88
2021/08/06 17:51:12;;;;;;;;;;;23.20;65.10;;;;;;5;36013617;39015515;-88
2021/08/06 17:54:25;;;;;;;;;;;23.00;65.40;;;;;;5;36014022;39015717;-88
2021/08/06 17:57:37;;;;;;;;;;;22.90;65.60;;;;;;5;36012887;39016096;-88
2021/08/06 18:00:51;;;;;;;;;;;22.70;66.40;;;;;;5;36014166;39764569;-88
2021/08/06 18:04:01;;;;;;;;;;;22.40;68.00;;;;;;5;36014173;39015958;-87
2021/08/06 18:07:14;;;;;;;;;;;22.20;69.40;;;;;;5;36015873;39016573;-88
2021/08/06 18:10:27;;;;;;;;;;;22.00;70.50;;;;;;5;36013056;39015449;-88
2021/08/06 18:13:39;;;;;;;;;;;21.80;71.40;;;;;;5;36015254;39015571;-87
2021/08/06 18:16:49;;;;;;;;;;;21.60;72.00;;;;;;5;36013853;39018146;-87
2021/08/06 18:20:02;;;;;;;;;;;21.50;72.50;;;;;;5;36012827;39015586;-88
2021/08/06 18:23:14;;;;;;;;;;;21.30;72.70;;;;;;5;36014600;39015278;-87
2021/08/06 18:26:27;;;;;;;;;;;21.20;72.50;;;;;;5;36013490;39016301;-88
2021/08/06 18:29:38;;;;;;;;;;;21.00;73.50;;;;;;5;36015551;39016752;-88
2021/08/06 18:32:53;;;;;;;;;;;20.90;74.00;;;;;;5;36013974;39765252;-87
2021/08/06 18:36:06;;;;;;;;;;;20.70;75.30;;;;;;5;36013409;39015979;-88
2021/08/06 18:39:19;;;;;;;;;;;20.60;75.80;;;;;;5;36014532;39016181;-88
2021/08/06 18:42:28;;;;;;;;;;;20.50;75.80;;;;;;5;36013075;39015874;-87
2021/08/06 18:45:41;;;;;;;;;;;20.30;76.20;;;;;;5;36012913;39015236;-87
2021/08/06 18:48:54;;;;;;;;;;;20.20;77.10;;;;;;5;36014605;39015563;-87
2021/08/06 18:52:06;;;;;;;;;;;20.10;77.30;;;;;;5;36014359;39015937;-87
2021/08/06 18:55:16;;;;;;;;;;;20.00;77.60;;;;;;5;36013452;39017060;-88
2021/08/06 18:58:29;;;;;;;;;;;19.80;78.90;;;;;;5;36013630;39015983;-87
2021/08/06 19:01:41;;;;;;;;;;;19.70;79.20;;;;;;5;36013479;39014712;-87
2021/08/06 19:04:55;;;;;;;;;;;19.60;79.50;;;;;;5;36013851;39765624;-88
2021/08/06 19:08:06;;;;;;;;;;;19.50;81.60;;;;;;5;36013461;39015650;-88
2021/08/06 19:11:19;;;;;;;;;;;19.40;82.60;;;;;;5;36013853;39016102;-87
2021/08/06 19:14:32;;;;;;;;;;;19.30;83.40;;;;;;5;36015546;39016159;-88
2021/08/06 19:17:45;;;;;;;;;;;19.30;83.40;;;;;;5;36013087;39015913;-88
2021/08/06 19:20:54;;;;;;;;;;;19.10;84.30;;;;;;5;36013770;39015381;-88
2021/08/06 19:24:07;;;;;;;;;;;19.10;84.70;;;;;;5;36014005;39015394;-87
2021/08/06 19:27:21;;;;;;;;;;;19.00;85.30;;;;;;5;36013154;39016051;-88
2021/08/06 19:30:39;;;;;;;;;;;19.00;86.10;;;;;;5;36015280;39015390;-87
2021/08/06 19:33:49;;;;;;;;;;;18.90;87.10;;;;;;5;36013842;39015686;-88
2021/08/06 19:37:05;;;;;;;;;;;18.90;87.90;;;;;;5;36013600;39764768;-88
2021/08/06 19:40:23;;;;;;;;;;;18.90;88.80;;;;;;5;36013379;39016300;-87
2021/08/06 19:43:36;;;;;;;;;;;18.80;89.30;;;;;;5;36013081;39016030;-87
2021/08/06 19:46:46;;;;;;;;;;;18.80;90.10;;;;;;5;36014599;39015347;-87
2021/08/06 19:49:59;;;;;;;;;;;18.70;90.20;;;;;;5;36013058;39015575;-87
2021/08/06 19:53:11;;;;;;;;;;;18.60;90.30;;;;;;5;36013446;39017558;-88
2021/08/06 19:56:24;;;;;;;;;;;18.60;91.30;;;;;;5;36014350;39016787;-87
2021/08/06 19:59:34;;;;;;;;;;;18.60;91.40;;;;;;5;36014770;39016117;-87
2021/08/06 20:02:46;;;;;;;;;;;18.50;91.50;;;;;;5;36015876;39015720;-87
2021/08/06 20:05:59;;;;;;;;;;;18.50;92.00;;;;;;5;36015342;39016800;-87
2021/08/06 20:09:13;;;;;;;;;;;18.50;92.30;;;;;;5;36013644;39765099;-88
2021/08/06 20:12:23;;;;;;;;;;;18.50;92.80;;;;;;5;36014461;39016651;-87
2021/08/06 20:15:35;;;;;;;;;;;18.50;92.80;;;;;;5;36013650;39016625;-86
2021/08/06 20:18:48;;;;;;;;;;;18.50;93.30;;;;;;5;36013850;39015104;-86
2021/08/06 20:22:02;;;;;;;;;;;18.50;93.00;;;;;;5;36014864;39016099;-86
2021/08/06 20:25:12;;;;;;;;;;;18.40;92.90;;;;;;5;36014614;39015127;-86
2021/08/06 20:28:25;;;;;;;;;;;18.40;93.80;;;;;;5;36014235;39016584;-86
2021/08/06 20:31:38;;;;;;;;;;;18.40;94.10;;;;;;5;36015004;39018009;-86
2021/08/06 20:34:50;;;;;;;;;;;18.50;94.00;;;;;;5;36015548;39019351;-86
2021/08/06 20:38:00;;;;;;;;;;;18.50;94.60;;;;;;5;36013257;39015951;-86
2021/08/06 20:41:14;;;;;;;;;;;18.50;94.40;;;;;;5;36013413;39765380;-86
2021/08/06 20:44:27;;;;;;;;;;;18.50;94.60;;;;;;5;36013933;39016004;-86
2021/08/06 20:47:39;;;;;;;;;;;18.40;94.50;;;;;;5;36013563;39015616;-86
2021/08/06 20:50:49;;;;;;;;;;;18.40;95.30;;;;;;5;36014262;39015768;-86